Time;durP1;ratioP1;P1;durP2;ratioP2;P2;SDS_P1;SDS_P2;PMS_P1;PMS_P2;Temp;Humidity;BMP_temperature;BMP_pressure;BME280_temperature;BME280_humidity;BME280_pressure;Samples;Min_cycle;Max_cycle;Signal;HPM_P1;HPM_P2
2022/08/27 00:01:03;;;;;;;1.83;1.25;;;;;;;15.66;69.12;93128.41;5093433;28;20468;-60
2022/08/27 00:03:29;;;;;;;3.58;1.35;;;;;;;15.80;68.75;93131.44;5093306;28;20016;-60
2022/08/27 00:05:54;;;;;;;23.20;21.85;;;;;;;15.86;68.07;93123.50;5093011;28;20116;-60
2022/08/27 00:08:19;;;;;;;3.72;3.40;;;;;;;15.78;69.35;93122.97;5093255;28;20031;-60
2022/08/27 00:10:45;;;;;;;5.72;2.33;;;;;;;15.53;69.41;93131.66;5093145;28;20085;-60
2022/08/27 00:13:10;;;;;;;2.75;2.33;;;;;;;15.53;70.12;93133.69;5092806;28;20406;-60
2022/08/27 00:15:36;;;;;;;2.00;1.80;;;;;;;15.58;69.69;93129.88;5092783;28;20062;-61
2022/08/27 00:18:02;;;;;;;1.77;1.55;;;;;;;15.49;69.42;93130.63;5093065;28;20027;-60
2022/08/27 00:20:27;;;;;;;3.50;1.90;;;;;;;15.42;69.69;93128.72;5092988;28;20020;-60
2022/08/27 00:22:53;;;;;;;2.08;1.75;;;;;;;15.44;69.70;93137.97;5092934;28;20023;-60
2022/08/27 00:25:19;;;;;;;1.95;1.67;;;;;;;15.45;68.82;93102.53;5092566;28;20033;-60
2022/08/27 00:27:45;;;;;;;2.53;2.30;;;;;;;15.52;68.39;93110.72;5092193;28;20039;-60
2022/08/27 00:30:14;;;;;;;3.58;2.15;;;;;;;15.53;69.19;93133.69;5092787;28;20020;-60
2022/08/27 00:32:41;;;;;;;3.47;1.98;;;;;;;15.57;69.49;93128.44;5092640;28;20031;-60
2022/08/27 00:35:07;;;;;;;2.33;1.88;;;;;;;15.44;69.52;93126.84;5092419;28;20114;-60
2022/08/27 00:37:32;;;;;;;1.40;1.30;;;;;;;15.25;69.85;93126.84;5097033;28;20114;-60
2022/08/27 00:39:58;;;;;;;1.17;1.15;;;;;;;15.36;69.35;93129.03;5112717;28;20062;-60
2022/08/27 00:42:23;;;;;;;1.63;1.52;;;;;;;15.39;69.13;93127.13;5093758;27;20032;-60
2022/08/27 00:44:49;;;;;;;3.95;1.73;;;;;;;15.38;69.28;93131.22;5092267;28;20082;-60
2022/08/27 00:47:21;;;;;;;2.30;1.52;;;;;;;15.46;69.15;93132.56;5092494;28;20026;-61
2022/08/27 00:49:55;;;;;;;1.63;1.52;;;;;;;15.41;69.37;93128.00;5092484;28;20103;-61
2022/08/27 00:52:26;;;;;;;2.22;1.38;;;;;;;15.31;69.34;93129.34;5092399;28;20458;-61
2022/08/27 00:54:58;;;;;;;3.72;1.77;;;;;;;15.28;69.16;93122.16;5092303;28;20036;-60
2022/08/27 00:57:23;;;;;;;2.72;1.70;;;;;;;15.33;68.82;93118.34;5091215;28;20467;-60
2022/08/27 00:59:49;;;;;;;1.80;1.60;;;;;;;15.25;69.76;93124.06;5091903;28;20107;-60
2022/08/27 01:02:17;;;;;;;3.42;2.05;;;;;;;15.27;69.27;93123.50;5092000;28;20020;-60
2022/08/27 01:04:52;;;;;;;2.33;2.13;;;;;;;15.28;68.77;93111.03;5091919;28;20036;-60
2022/08/27 01:07:17;;;;;;;2.22;1.98;;;;;;;14.99;70.03;93122.16;5090585;28;20028;-60
2022/08/27 01:09:45;;;;;;;1.35;1.23;;;;;;;14.82;71.27;93119.53;5091791;28;20035;-60
2022/08/27 01:12:10;;;;;;;1.85;1.55;;;;;;;15.05;69.97;93120.56;5091998;28;20020;-61
2022/08/27 01:14:37;;;;;;;14.13;13.45;;;;;;;15.09;69.76;93117.34;5091609;28;20032;-60
2022/08/27 01:17:04;;;;;;;10.55;9.98;;;;;;;15.03;69.66;93112.06;5090421;28;20124;-60
2022/08/27 01:19:49;;;;;;;14.55;13.77;;;;;;;14.81;70.60;93112.53;5090384;28;20027;-60
2022/08/27 01:22:43;;;;;;;55.15;51.90;;;;;;;14.80;70.59;93111.03;5090377;28;20047;-60
2022/08/27 01:25:12;;;;;;;2.20;1.92;;;;;;;14.92;70.16;93117.50;5090620;28;20032;-60
2022/08/27 01:27:38;;;;;;;2.22;1.77;;;;;;;14.96;69.85;93115.00;5091770;28;20097;-60
2022/08/27 01:30:05;;;;;;;2.42;2.22;;;;;;;14.94;69.77;93112.78;5090561;28;20044;-60
2022/08/27 01:32:32;;;;;;;2.20;1.98;;;;;;;14.86;69.96;93120.56;5091539;28;20038;-61
2022/08/27 01:34:59;;;;;;;2.38;1.58;;;;;;;14.82;70.10;93114.72;5104289;28;20119;-60
2022/08/27 01:37:25;;;;;;;2.60;1.73;;;;;;;14.72;70.50;93102.88;5111468;28;20027;-60
2022/08/27 01:39:52;;;;;;;2.20;2.00;;;;;;;14.83;70.44;93110.63;5111592;28;20031;-60
2022/08/27 01:42:24;;;;;;;2.40;2.17;;;;;;;14.90;69.68;93111.78;5106482;28;20503;-61
2022/08/27 01:45:15;;;;;;;3.40;2.00;;;;;;;15.00;68.53;93109.75;5110192;28;20119;-60
2022/08/27 01:47:41;;;;;;;1.63;1.52;;;;;;;14.85;69.25;93110.78;5110888;28;20436;-60
2022/08/27 01:50:20;;;;;;;2.25;1.98;;;;;;;14.80;69.31;93109.00;5111427;28;20035;-60
2022/08/27 01:52:45;;;;;;;2.03;1.70;;;;;;;14.78;69.33;93108.88;5111581;28;20032;-60
2022/08/27 01:55:13;;;;;;;2.22;2.00;;;;;;;14.68;69.63;93104.63;5111554;28;20039;-60
2022/08/27 01:57:40;;;;;;;1.33;1.20;;;;;;;14.70;69.42;93111.06;5111602;28;20030;-60
2022/08/27 02:00:18;;;;;;;1.92;1.33;;;;;;;14.63;69.55;93097.28;5111212;28;20031;-60
2022/08/27 02:02:44;;;;;;;1.42;1.20;;;;;;;14.57;69.89;93099.63;5111571;27;20084;-61
2022/08/27 02:05:11;;;;;;;5.38;1.85;;;;;;;14.51;70.13;93102.69;5111381;28;20136;-60
2022/08/27 02:07:37;;;;;;;2.63;1.65;;;;;;;14.52;69.82;93106.19;5111018;28;20161;-60
2022/08/27 02:10:05;;;;;;;2.10;1.58;;;;;;;14.53;69.76;93102.13;5111059;28;20063;-60
2022/08/27 02:12:30;;;;;;;1.63;1.52;;;;;;;14.50;70.04;93101.22;5111244;27;20042;-60
2022/08/27 02:14:56;;;;;;;2.05;1.65;;;;;;;14.46;70.31;93108.53;5111328;28;20500;-60
2022/08/27 02:17:21;;;;;;;2.70;1.80;;;;;;;14.38;70.90;93103.09;5110887;28;20511;-60
2022/08/27 02:19:47;;;;;;;1.60;1.50;;;;;;;14.34;70.83;93103.53;5111219;28;20028;-60
2022/08/27 02:22:12;;;;;;;2.53;1.90;;;;;;;14.30;71.37;93110.84;5110804;28;20471;-60
2022/08/27 02:24:39;;;;;;;3.78;2.30;;;;;;;14.29;70.88;93101.06;5111096;28;20023;-60
2022/08/27 02:27:05;;;;;;;2.03;1.52;;;;;;;14.38;70.46;93111.44;5111196;28;20031;-60
2022/08/27 02:29:33;;;;;;;2.67;1.90;;;;;;;14.35;70.54;93098.72;5110753;28;20394;-59
2022/08/27 02:31:59;;;;;;;2.17;1.90;;;;;;;14.25;70.67;93101.44;5090355;28;20038;-60
2022/08/27 02:34:24;;;;;;;2.15;1.90;;;;;;;14.26;70.63;93108.47;5090604;28;20024;-60
2022/08/27 02:36:51;;;;;;;2.35;1.85;;;;;;;14.19;71.56;93109.31;5090274;28;20036;-60
2022/08/27 02:39:16;;;;;;;2.00;1.60;;;;;;;14.23;70.42;93095.00;5090683;28;20040;-61
2022/08/27 02:41:42;;;;;;;1.45;1.35;;;;;;;14.40;70.10;93111.59;5101731;28;20038;-61
2022/08/27 02:44:07;;;;;;;2.28;1.80;;;;;;;14.33;69.83;93113.19;5110532;28;20047;-60
2022/08/27 02:46:33;;;;;;;2.10;1.92;;;;;;;14.10;71.19;93120.38;5110891;28;20024;-60
2022/08/27 02:48:58;;;;;;;1.83;1.40;;;;;;;14.15;70.87;93114.56;5111415;28;20050;-60
2022/08/27 02:51:24;;;;;;;2.60;1.70;;;;;;;14.24;70.04;93111.09;5115153;28;20408;-60
2022/08/27 02:53:49;;;;;;;2.20;2.08;;;;;;;14.09;70.94;93124.50;5114561;28;20535;-60
2022/08/27 02:56:15;;;;;;;2.92;2.08;;;;;;;14.15;70.29;93108.28;5115087;28;20023;-60
2022/08/27 02:58:40;;;;;;;3.50;2.13;;;;;;;14.04;71.04;93120.66;5114630;28;20100;-60
2022/08/27 03:01:06;;;;;;;1.80;1.58;;;;;;;13.98;71.35;93122.25;5114646;28;20027;-60
2022/08/27 03:03:32;;;;;;;1.58;1.48;;;;;;;13.88;71.77;93127.03;5114879;28;20023;-60
2022/08/27 03:05:58;;;;;;;1.92;1.80;;;;;;;13.89;71.37;93125.72;5114816;28;20024;-60
2022/08/27 03:08:25;;;;;;;1.45;1.33;;;;;;;13.90;71.26;93125.16;5114810;27;20031;-60
2022/08/27 03:10:52;;;;;;;3.92;2.42;;;;;;;13.75;71.65;93132.97;5114669;28;20039;-60
2022/08/27 03:13:18;;;;;;;2.92;1.95;;;;;;;13.88;71.55;93132.59;5114602;28;20087;-60
2022/08/27 03:15:43;;;;;;;2.97;2.20;;;;;;;13.94;71.37;93138.59;5114697;28;20107;-60
2022/08/27 03:18:18;;;;;;;2.30;2.10;;;;;;;13.90;70.96;93139.03;5114564;28;20024;-60
2022/08/27 03:20:50;;;;;;;2.25;2.05;;;;;;;13.88;71.48;93143.69;5114615;28;20035;-60
2022/08/27 03:23:17;;;;;;;1.77;1.58;;;;;;;13.82;71.68;93148.78;5114282;28;20484;-60
2022/08/27 03:25:51;;;;;;;2.25;1.90;;;;;;;13.79;71.94;93141.59;5114162;28;20028;-60
2022/08/27 03:28:24;;;;;;;2.08;1.73;;;;;;;13.84;71.22;93155.19;5094059;28;20467;-60
2022/08/27 03:31:00;;;;;;;2.13;1.92;;;;;;;13.69;71.25;93130.44;5094040;28;20227;-60
2022/08/27 03:33:27;;;;;;;1.98;1.67;;;;;;;13.80;71.25;93163.22;5093958;28;20117;-60
2022/08/27 03:35:53;;;;;;;3.13;1.70;;;;;;;13.74;71.04;93162.75;5093575;28;20028;-60
2022/08/27 03:38:19;;;;;;;1.70;1.60;;;;;;;13.80;71.03;93159.72;5093593;28;20077;-60
2022/08/27 03:40:45;;;;;;;1.65;1.40;;;;;;;13.66;71.68;93157.31;5097023;28;20027;-60
2022/08/27 03:43:12;;;;;;;1.98;1.80;;;;;;;13.78;70.90;93165.84;5113800;28;20075;-60
2022/08/27 03:45:38;;;;;;;2.85;2.65;;;;;;;13.78;70.63;93162.31;5114081;27;20126;-60
2022/08/27 03:48:05;;;;;;;2.58;2.38;;;;;;;13.78;70.32;93171.38;5114052;28;20039;-60
2022/08/27 03:50:31;;;;;;;2.00;1.88;;;;;;;13.72;70.96;93170.94;5114018;28;20116;-60
2022/08/27 03:52:57;;;;;;;2.00;1.80;;;;;;;13.77;71.08;93171.97;5113576;28;20431;-60
2022/08/27 03:55:23;;;;;;;2.58;2.38;;;;;;;13.69;71.33;93158.19;5113936;28;20027;-60
2022/08/27 03:57:48;;;;;;;2.80;1.92;;;;;;;13.51;72.53;93170.66;5113886;28;20047;-60
2022/08/27 04:00:14;;;;;;;3.22;2.92;;;;;;;13.56;72.21;93170.41;5113430;28;20404;-60
2022/08/27 04:02:41;;;;;;;1.75;1.65;;;;;;;13.46;72.45;93175.16;5112879;28;20062;-60
2022/08/27 04:05:11;;;;;;;4.18;2.58;;;;;;;13.47;72.83;93173.84;5113719;27;20032;-59
2022/08/27 04:07:37;;;;;;;1.75;1.63;;;;;;;13.35;72.89;93175.66;5113694;28;20031;-59
2022/08/27 04:10:04;;;;;;;2.22;2.03;;;;;;;13.45;71.96;93154.25;5113654;27;20100;-60
2022/08/27 04:12:30;;;;;;;2.08;1.88;;;;;;;13.49;72.13;93176.75;5113207;28;20024;-60
2022/08/27 04:14:55;;;;;;;3.45;2.17;;;;;;;13.49;71.97;93176.75;5113223;27;20024;-59
2022/08/27 04:17:21;;;;;;;2.33;2.13;;;;;;;13.56;71.82;93172.44;5113440;28;20027;-59
2022/08/27 04:19:46;;;;;;;2.25;1.83;;;;;;;13.77;71.48;93177.53;5113423;28;20035;-60
2022/08/27 04:22:12;;;;;;;3.75;2.05;;;;;;;13.75;71.58;93180.16;5111407;28;20027;-60
2022/08/27 04:24:38;;;;;;;2.20;2.00;;;;;;;13.69;72.16;93172.81;5092651;28;20031;-60
2022/08/27 04:27:05;;;;;;;2.50;1.65;;;;;;;13.82;70.93;93184.88;5092635;28;20039;-60
2022/08/27 04:29:30;;;;;;;6.90;1.80;;;;;;;13.87;70.77;93181.81;5092840;28;20063;-60
2022/08/27 04:31:56;;;;;;;2.63;2.08;;;;;;;13.80;71.10;93185.41;5092810;28;20047;-60
2022/08/27 04:34:22;;;;;;;2.60;2.15;;;;;;;13.75;71.62;93182.91;5092370;28;20096;-60
2022/08/27 04:36:49;;;;;;;2.17;2.00;;;;;;;13.81;71.46;93181.34;5092681;28;20087;-60
2022/08/27 04:39:15;;;;;;;3.92;2.60;;;;;;;13.82;71.65;93180.03;5092437;28;20028;-60
2022/08/27 04:41:40;;;;;;;3.85;2.78;;;;;;;14.00;70.95;93180.69;5103519;28;20015;-60
2022/08/27 04:44:08;;;;;;;2.42;2.22;;;;;;;13.93;71.30;93178.75;5112623;28;20047;-60
2022/08/27 04:46:38;;;;;;;3.10;2.65;;;;;;;14.02;71.47;93180.84;5112597;28;20507;-60
2022/08/27 04:49:07;;;;;;;3.72;2.35;;;;;;;14.04;71.81;93181.75;5112990;28;20033;-60
2022/08/27 04:51:32;;;;;;;;;;;;;;;14.15;71.69;93174.91;5113407;28;20080;-60
2022/08/27 04:54:01;;;;;;;3.20;2.15;;;;;;;14.12;72.08;93173.31;5112352;28;20351;-60
2022/08/27 04:56:26;;;;;;;2.27;2.07;;;;;;;13.99;72.32;93173.69;5112893;28;20444;-60
2022/08/27 04:58:52;;;;;;;2.33;2.00;;;;;;;14.08;72.94;93178.53;5112598;28;20030;-60
2022/08/27 05:01:26;;;;;;;3.60;2.42;;;;;;;14.16;73.30;93190.28;5112413;28;20108;-60
2022/08/27 05:03:52;;;;;;;1.85;1.70;;;;;;;14.31;72.89;93181.75;5112274;28;20047;-60
2022/08/27 05:06:18;;;;;;;4.60;2.42;;;;;;;14.46;72.36;93192.59;5112236;28;20023;-59
2022/08/27 05:08:43;;;;;;;3.63;2.40;;;;;;;14.39;73.03;93193.44;5112499;28;20020;-60
2022/08/27 05:11:12;;;;;;;2.75;2.55;;;;;;;14.48;72.30;93189.97;5112406;28;20028;-60
2022/08/27 05:13:38;;;;;;;4.82;2.55;;;;;;;14.47;72.42;93171.13;5111294;28;20047;-62
2022/08/27 05:16:06;;;;;;;6.05;2.38;;;;;;;14.55;72.44;93172.47;5112494;28;20053;-60
2022/08/27 05:18:33;;;;;;;3.40;3.10;;;;;;;14.68;72.84;93194.28;5109848;28;20034;-61
2022/08/27 05:20:59;;;;;;;3.92;2.80;;;;;;;14.73;73.36;93196.03;5091559;28;20028;-61
2022/08/27 05:23:29;;;;;;;2.03;1.70;;;;;;;14.84;73.63;93178.03;5091831;28;20027;-62
2022/08/27 05:25:55;;;;;;;2.58;1.92;;;;;;;14.97;73.67;93189.47;5091532;28;20035;-62
2022/08/27 05:28:23;;;;;;;3.33;2.90;;;;;;;15.10;73.95;93186.28;5091713;28;20033;-62
2022/08/27 05:30:51;;;;;;;2.72;2.10;;;;;;;15.27;72.57;93187.47;5091308;28;20111;-62
2022/08/27 05:33:20;;;;;;;3.28;2.70;;;;;;;15.36;72.43;93189.47;5091360;28;20031;-62
2022/08/27 05:35:49;;;;;;;4.90;3.10;;;;;;;15.48;71.55;93182.78;5091612;28;20663;-62
2022/08/27 05:38:16;;;;;;;3.45;2.58;;;;;;;15.50;71.49;93196.09;5091337;28;20552;-62
2022/08/27 05:40:42;;;;;;;2.30;2.10;;;;;;;15.54;72.03;93199.16;5091134;28;20032;-62
2022/08/27 05:43:08;;;;;;;3.78;2.60;;;;;;;15.50;71.99;93194.06;5110499;28;20044;-62
2022/08/27 05:45:42;;;;;;;2.92;2.47;;;;;;;15.66;71.90;93200.03;5111511;28;20033;-62
2022/08/27 05:48:10;;;;;;;6.47;2.83;;;;;;;15.73;71.87;93197.09;5111448;28;20031;-62
2022/08/27 05:50:39;;;;;;;6.03;3.47;;;;;;;15.88;72.71;93196.03;5111464;27;20492;-62
2022/08/27 05:53:05;;;;;;;5.00;3.83;;;;;;;15.99;73.27;93192.63;5111588;28;20026;-63
2022/08/27 05:55:44;;;;;;;5.03;3.45;;;;;;;16.00;73.21;93177.41;5111601;28;20031;-62
2022/08/27 06:01:04;;;;;;;6.13;4.15;;;;;;;16.32;72.98;93196.34;5111514;28;20123;-62
2022/08/27 06:03:34;;;;;;;7.47;4.22;;;;;;;16.37;73.47;93191.78;5111166;28;20023;-62
2022/08/27 06:06:05;;;;;;;6.10;4.07;;;;;;;16.48;73.76;93193.94;5111350;28;20102;-63
2022/08/27 06:08:31;;;;;;;4.68;3.88;;;;;;;16.64;73.74;93187.41;5111369;28;20089;-63
2022/08/27 06:11:00;;;;;;;3.85;3.05;;;;;;;16.72;73.70;93197.66;5111071;28;20408;-63
2022/08/27 06:13:26;;;;;;;5.68;3.08;;;;;;;16.85;72.63;93199.94;5111327;28;20040;-63
2022/08/27 06:16:00;;;;;;;2.58;2.20;;;;;;;16.89;71.72;93186.97;5099515;28;20038;-63
2022/08/27 06:18:25;;;;;;;2.30;1.90;;;;;;;17.22;70.31;93204.50;5090687;28;20032;-63
2022/08/27 06:20:51;;;;;;;3.40;1.95;;;;;;;17.50;68.20;93200.06;5090495;28;20020;-63
2022/08/27 06:23:16;;;;;;;2.08;1.70;;;;;;;17.68;68.12;93204.03;5090508;28;20024;-63
2022/08/27 06:25:42;;;;;;;2.25;2.05;;;;;;;17.87;67.18;93203.09;5090119;28;20024;-63
2022/08/27 06:28:08;;;;;;;11.90;2.28;;;;;;;18.03;66.26;93199.28;5090482;28;20035;-63
2022/08/27 06:30:34;;;;;;;3.85;2.40;;;;;;;18.07;65.76;93199.53;5090709;28;20024;-63
2022/08/27 06:32:59;;;;;;;3.65;2.03;;;;;;;18.11;65.79;93197.00;5090593;28;20039;-63
2022/08/27 06:35:25;;;;;;;2.05;1.67;;;;;;;18.36;65.17;93198.50;5090694;28;20481;-63
2022/08/27 06:37:50;;;;;;;4.97;1.85;;;;;;;18.55;64.02;93201.06;5090384;28;20027;-62
2022/08/27 06:40:16;;;;;;;2.80;1.98;;;;;;;18.63;64.58;93201.56;5090372;28;20085;-63
2022/08/27 06:42:41;;;;;;;2.47;1.80;;;;;;;18.80;62.13;93199.13;5109979;28;20047;-63
2022/08/27 06:45:09;;;;;;;2.72;2.33;;;;;;;18.83;61.45;93202.78;5110935;28;20440;-63
2022/08/27 06:47:35;;;;;;;1.73;1.40;;;;;;;18.95;60.96;93200.69;5110888;28;20027;-63
2022/08/27 06:50:00;;;;;;;2.60;2.03;;;;;;;19.07;61.50;93197.88;5110902;28;20030;-63
2022/08/27 06:52:26;;;;;;;3.67;2.05;;;;;;;19.25;61.40;93194.06;5110525;28;21037;-63
2022/08/27 06:54:51;;;;;;;2.00;1.75;;;;;;;19.30;61.63;93198.56;5110390;28;20024;-63
2022/08/27 06:57:16;;;;;;;3.22;1.52;;;;;;;19.58;60.99;93200.22;5110853;28;20024;-63
2022/08/27 06:59:43;;;;;;;2.28;2.03;;;;;;;19.89;59.46;93207.50;5110640;28;20435;-63
2022/08/27 07:02:09;;;;;;;3.15;1.60;;;;;;;20.24;58.24;93202.50;5110484;28;20012;-62
2022/08/27 07:04:35;;;;;;;1.83;1.73;;;;;;;20.85;56.80;93203.66;5110795;28;20463;-60
2022/08/27 07:07:02;;;;;;;3.08;1.85;;;;;;;21.57;55.73;93207.34;5110654;28;20051;-60
2022/08/27 07:09:30;;;;;;;1.98;1.83;;;;;;;22.32;52.06;93186.41;5110437;28;20496;-61
2022/08/27 07:11:56;;;;;;;1.47;1.33;;;;;;;23.13;50.25;93202.03;5100589;28;20412;-61
2022/08/27 07:14:22;;;;;;;1.92;1.77;;;;;;;23.79;46.80;93200.63;5089952;28;20533;-62
2022/08/27 07:16:48;;;;;;;2.33;2.13;;;;;;;24.30;47.22;93197.78;5090278;28;20028;-61
2022/08/27 07:19:13;;;;;;;1.70;1.40;;;;;;;24.80;44.34;93206.09;5090186;28;20020;-62
2022/08/27 07:21:39;;;;;;;3.35;2.00;;;;;;;25.24;44.70;93201.38;5089919;28;20032;-62
2022/08/27 07:24:05;;;;;;;1.55;1.45;;;;;;;25.99;42.74;93203.97;5089899;28;20017;-63
2022/08/27 07:26:37;;;;;;;1.48;1.15;;;;;;;26.62;40.87;93206.69;5090165;28;20031;-63
2022/08/27 07:29:04;;;;;;;1.20;1.10;;;;;;;26.92;39.31;93205.53;5090163;28;20023;-62
2022/08/27 07:31:30;;;;;;;1.95;1.42;;;;;;;27.24;39.98;93210.69;5089825;28;20099;-63
2022/08/27 07:33:56;;;;;;;1.35;1.25;;;;;;;27.64;37.75;93200.47;5089757;28;20038;-62
2022/08/27 07:36:22;;;;;;;1.55;1.10;;;;;;;28.21;37.70;93203.41;5091260;28;20055;-62
2022/08/27 07:38:48;;;;;;;2.17;1.63;;;;;;;28.64;36.03;93207.28;5093912;28;20055;-64
2022/08/27 07:41:14;;;;;;;4.07;1.77;;;;;;;29.03;34.76;93193.25;5101077;28;20016;-62
2022/08/27 07:46:24;;;;;;;1.58;1.40;;;;;;;29.57;33.82;93187.97;5114138;28;20216;-63
2022/08/27 07:48:50;;;;;;;1.27;1.17;;;;;;;30.38;33.85;93200.84;5113999;28;20046;-63
2022/08/27 07:51:18;;;;;;;2.33;1.55;;;;;;;30.98;31.60;93192.50;5114048;28;20477;-63
2022/08/27 07:53:45;;;;;;;2.60;1.33;;;;;;;31.55;30.13;93202.56;5113872;27;20023;-63
2022/08/27 07:56:11;;;;;;;3.17;1.73;;;;;;;31.94;29.39;93205.19;5113943;28;20096;-63
2022/08/27 07:58:37;;;;;;;2.35;1.48;;;;;;;32.58;28.77;93201.47;5113852;27;20457;-62
2022/08/27 08:01:03;;;;;;;1.42;1.33;;;;;;;33.37;27.87;93191.28;5113696;28;20028;-63
2022/08/27 08:03:30;;;;;;;1.92;1.83;;;;;;;33.68;27.54;93200.75;5113777;27;20412;-62
2022/08/27 08:05:56;;;;;;;3.28;1.52;;;;;;;33.82;27.25;93204.38;5113709;28;20549;-65
2022/08/27 08:08:23;;;;;;;1.40;1.08;;;;;;;33.99;27.44;93200.13;5101994;28;20028;-62
2022/08/27 08:10:49;;;;;;;1.20;0.90;;;;;;;34.26;26.39;93207.38;5092911;28;20161;-60
2022/08/27 08:13:16;;;;;;;2.20;1.38;;;;;;;34.67;26.37;93204.56;5092812;28;20039;-63
2022/08/27 08:15:43;;;;;;;1.27;1.17;;;;;;;34.88;26.63;93200.25;5093127;28;20059;-60
2022/08/27 08:18:08;;;;;;;1.60;1.00;;;;;;;35.16;25.75;93197.34;5092799;28;20024;-60
2022/08/27 08:20:34;;;;;;;5.20;1.63;;;;;;;34.78;24.83;93203.81;5093084;28;20027;-59
2022/08/27 08:22:59;;;;;;;3.90;1.40;;;;;;;34.73;25.84;93190.22;5091487;28;20504;-63
2022/08/27 08:25:25;;;;;;;1.75;1.10;;;;;;;34.91;25.64;93198.81;5092960;28;20416;-60
2022/08/27 08:27:50;;;;;;;1.20;1.10;;;;;;;34.72;26.54;93194.50;5092642;28;20032;-61
2022/08/27 08:30:15;;;;;;;1.33;1.23;;;;;;;34.56;24.94;93198.13;5092907;28;20039;-60
2022/08/27 08:32:42;;;;;;;2.47;1.77;;;;;;;34.26;26.64;93195.91;5092436;28;20155;-60
2022/08/27 08:35:08;;;;;;;1.27;1.17;;;;;;;34.33;26.04;93188.03;5092414;28;20028;-60
2022/08/27 08:37:34;;;;;;;1.45;1.33;;;;;;;34.23;26.04;93190.88;5092393;28;20032;-60
2022/08/27 08:39:59;;;;;;;2.35;1.40;;;;;;;33.09;26.72;93194.00;5092740;28;20024;-65
2022/08/27 08:42:57;;;;;;;1.42;1.27;;;;;;;33.18;27.79;93201.91;5109683;28;20389;-62
2022/08/27 08:45:30;;;;;;;1.38;1.27;;;;;;;33.09;28.42;93196.88;5077843;28;20036;-62
2022/08/27 08:48:02;;;;;;;2.60;1.35;;;;;;;33.00;27.23;93198.97;5112409;28;20092;-63
2022/08/27 08:50:43;;;;;;;2.13;1.30;;;;;;;32.89;27.32;93197.44;5112952;28;20070;-62
2022/08/27 08:53:13;;;;;;;1.70;1.23;;;;;;;32.83;27.93;93192.38;5111674;28;20028;-63
2022/08/27 08:55:50;;;;;;;1.42;1.13;;;;;;;32.74;28.71;93187.31;5113034;28;20107;-63
2022/08/27 08:58:51;;;;;;;3.50;2.30;;;;;;;32.97;28.25;93193.88;5111621;28;20412;-64
2022/08/27 09:01:19;;;;;;;2.22;1.30;;;;;;;33.19;27.64;93196.91;5111959;28;20103;-63
2022/08/27 09:03:59;;;;;;;1.10;1.00;;;;;;;33.34;26.54;93189.84;5106915;28;20508;-62
2022/08/27 09:06:27;;;;;;;2.42;1.27;;;;;;;33.25;27.29;93191.22;5092107;28;20103;-63
2022/08/27 09:08:53;;;;;;;2.30;1.25;;;;;;;33.49;27.00;93188.47;5091771;28;20031;-63
2022/08/27 09:11:28;;;;;;;1.40;1.23;;;;;;;33.43;27.41;93192.03;5092018;28;20039;-62
2022/08/27 09:14:20;;;;;;;2.25;1.10;;;;;;;33.97;26.42;93194.41;5091602;28;20028;-61
2022/08/27 09:16:45;;;;;;;2.53;1.13;;;;;;;33.97;26.06;93187.94;5083077;28;20061;-61
2022/08/27 09:19:10;;;;;;;2.58;1.30;;;;;;;34.03;26.68;93190.84;5091632;28;20027;-61
2022/08/27 09:21:43;;;;;;;3.10;2.45;;;;;;;34.38;26.12;93188.75;5091922;28;20081;-63
2022/08/27 09:24:40;;;;;;;2.20;1.33;;;;;;;34.56;25.13;93185.94;5091549;28;20058;-66
2022/08/27 09:27:11;;;;;;;1.15;1.00;;;;;;;35.78;24.80;93182.81;5091900;28;20028;-66
2022/08/27 09:29:38;;;;;;;1.52;1.00;;;;;;;36.64;23.15;93188.78;5090335;28;20188;-68
2022/08/27 09:32:07;;;;;;;6.22;1.63;;;;;;;37.64;21.91;93184.94;5090091;28;20420;-64
2022/08/27 09:34:36;;;;;;;2.63;1.35;;;;;;;38.30;21.11;93188.47;5091515;28;20042;-64
2022/08/27 09:37:24;;;;;;;16.02;2.85;;;;;;;38.74;21.27;93179.16;5091498;28;20028;-64
2022/08/27 09:40:04;;;;;;;1.75;1.20;;;;;;;39.13;21.19;93188.63;5090430;28;20032;-67
2022/08/27 09:42:38;;;;;;;1.50;1.20;;;;;;;39.37;18.98;93176.59;5109222;28;20500;-63
2022/08/27 09:45:10;;;;;;;1.33;1.20;;;;;;;39.51;18.46;93169.84;5111510;28;20027;-63
2022/08/27 09:47:47;;;;;;;1.52;1.00;;;;;;;39.54;20.34;93176.31;5111442;28;20031;-65
2022/08/27 09:50:16;;;;;;;2.47;1.13;;;;;;;39.62;18.70;93167.50;5111695;28;20098;-61
2022/08/27 09:52:54;;;;;;;2.13;1.27;;;;;;;40.00;18.66;93173.22;5111600;28;20104;-65
2022/08/27 09:55:28;;;;;;;2.35;1.08;;;;;;;39.56;19.35;93171.22;5111320;28;20030;-67
2022/08/27 09:57:54;;;;;;;1.98;1.40;;;;;;;39.95;17.95;93176.94;5111490;28;20038;-67
2022/08/27 10:00:30;;;;;;;1.40;1.30;;;;;;;39.64;18.85;93179.00;5102426;28;20572;-65
2022/08/27 10:02:59;;;;;;;2.17;1.10;;;;;;;38.78;19.51;93172.59;5090032;28;20024;-66
2022/08/27 10:05:49;;;;;;;3.42;1.30;;;;;;;38.68;18.74;93174.19;5090760;28;20024;-63
2022/08/27 10:08:28;;;;;;;1.98;1.20;;;;;;;38.81;18.93;93174.72;5090751;28;20024;-63
2022/08/27 10:11:05;;;;;;;7.32;1.48;;;;;;;37.90;19.51;93175.31;5089781;28;20050;-63
2022/08/27 10:13:38;;;;;;;2.30;1.40;;;;;;;36.79;20.87;93187.22;5089768;28;20382;-62
2022/08/27 10:16:21;;;;;;;2.97;1.80;;;;;;;35.74;22.43;93191.44;5090648;28;20107;-61
2022/08/27 10:19:04;;;;;;;1.75;1.20;;;;;;;34.84;23.58;93186.63;5090915;28;20031;-63
2022/08/27 10:21:53;;;;;;;2.40;1.30;;;;;;;34.06;23.45;93178.69;5089439;28;20024;-64
2022/08/27 10:24:41;;;;;;;1.00;0.98;;;;;;;33.38;25.17;93187.00;5089345;28;20020;-64
2022/08/27 10:27:26;;;;;;;1.27;1.17;;;;;;;32.49;24.48;93188.53;5089294;28;20027;-64
2022/08/27 10:29:58;;;;;;;1.65;1.35;;;;;;;31.79;26.36;93174.28;5090430;28;20028;-63
2022/08/27 10:32:51;;;;;;;2.30;1.48;;;;;;;31.61;26.83;93186.22;5090804;28;20400;-63
2022/08/27 10:35:21;;;;;;;1.60;1.50;;;;;;;31.16;28.99;93181.38;5090768;28;20466;-63
2022/08/27 10:38:08;;;;;;;1.98;1.45;;;;;;;31.07;28.83;93194.78;5090445;28;20558;-64
2022/08/27 10:40:37;;;;;;;1.77;1.35;;;;;;;32.48;24.24;93182.13;5090327;28;20028;-64
2022/08/27 10:43:05;;;;;;;1.50;0.90;;;;;;;33.44;24.67;93175.59;5109030;28;20073;-64
2022/08/27 10:45:58;;;;;;;6.80;2.50;;;;;;;33.09;24.42;93168.25;5110740;28;20034;-65
2022/08/27 10:48:49;;;;;;;1.75;1.25;;;;;;;33.45;22.99;93172.00;5110728;28;20023;-67
2022/08/27 10:51:15;;;;;;;1.63;1.52;;;;;;;34.25;22.53;93185.88;5109303;28;20081;-66
2022/08/27 10:54:08;;;;;;;1.77;1.52;;;;;;;35.35;20.77;93178.66;5110351;28;20027;-66
2022/08/27 10:56:37;;;;;;;2.08;1.38;;;;;;;36.18;21.14;93190.53;5103689;28;20036;-66
2022/08/27 10:59:23;;;;;;;1.67;1.55;;;;;;;37.10;19.89;93177.59;5089227;28;20056;-66
2022/08/27 11:02:16;;;;;;;2.92;1.20;;;;;;;38.04;19.59;93178.00;5090501;28;20416;-69
2022/08/27 11:04:46;;;;;;;1.45;1.30;;;;;;;38.96;17.23;93178.78;5089750;28;20028;-65
2022/08/27 11:07:27;;;;;;;1.20;1.10;;;;;;;39.68;17.34;93179.66;5088934;28;20024;-66
2022/08/27 11:10:03;;;;;;;1.30;1.10;;;;;;;39.87;16.61;93177.81;5089273;28;20024;-65
2022/08/27 11:12:37;;;;;;;3.60;1.08;;;;;;;39.58;17.10;93182.75;5094380;28;20031;-69
2022/08/27 11:15:14;;;;;;;1.27;1.08;;;;;;;39.90;17.43;93172.69;5092866;28;20520;-64
2022/08/27 11:17:49;;;;;;;1.67;0.93;;;;;;;39.96;17.37;93179.06;5093197;28;20124;-64
2022/08/27 11:20:20;;;;;;;2.13;1.13;;;;;;;40.37;17.21;93175.34;5094257;28;20472;-65
2022/08/27 11:22:50;;;;;;;0.60;0.60;;;;;;;40.31;16.57;93170.38;5093020;28;20024;-65
2022/08/27 11:25:22;;;;;;;2.55;1.02;;;;;;;39.94;16.34;93170.44;5092984;28;20035;-64
2022/08/27 11:27:52;;;;;;;0.93;0.88;;;;;;;39.84;17.56;93167.06;5094095;28;20028;-64
2022/08/27 11:30:24;;;;;;;1.52;1.42;;;;;;;39.88;17.25;93164.78;5093790;28;20064;-65
2022/08/27 11:33:31;;;;;;;1.50;0.93;;;;;;;39.61;17.70;93163.91;5093744;28;20492;-67
2022/08/27 11:36:03;;;;;;;1.52;1.08;;;;;;;38.07;19.43;93161.38;5093367;28;20076;-65
2022/08/27 11:38:55;;;;;;;1.17;1.08;;;;;;;37.15;18.98;93167.47;5094014;28;20153;-63
2022/08/27 11:41:22;;;;;;;2.35;1.20;;;;;;;36.04;20.42;93161.84;5102133;28;20053;-64
2022/08/27 11:43:48;;;;;;;1.05;0.95;;;;;;;35.31;20.84;93167.19;5113756;28;20060;-64
2022/08/27 11:46:22;;;;;;;1.33;1.17;;;;;;;34.47;20.85;93156.50;5113832;28;20023;-64
2022/08/27 11:48:58;;;;;;;1.65;1.30;;;;;;;33.84;22.70;93152.09;5113749;28;20031;-65
2022/08/27 11:51:35;;;;;;;3.03;1.67;;;;;;;33.12;22.62;93152.53;5112597;28;20458;-65